Data for 02/22/2010

Time Sea-Level Adjusted Pressure Absolute Pressure Temperature Relative Humidity Dew Point   
(mb) (inHg) (mb) (inHg) (C) (F) (%) (C) (F)
00:05 1017 30.03 846 24.98 -12.7 9.1 74 -16.5 2.3
00:10 1017 30.03 846 24.98 -13.1 8.5 74 -16.7 1.9
00:15 1017 30.03 846 24.98 -13.3 8 75 -17 1.5
00:20 1017 30.03 846 24.98 -13.5 7.6 75 -17 1.4
00:25 1017 30.03 846 24.98 -13.6 7.5 76 -17 1.5
00:30 1017 30.03 846 24.98 -13.5 7.6 77 -16.8 1.7
00:35 1017 30.03 846 24.98 -13.4 7.9 76 -16.8 1.8
00:40 1017 30.03 846 24.98 -13.3 8 76 -16.7 1.9
00:45 1017 30.03 846 24.98 -13.2 8.2 74 -16.9 1.5
00:50 1017 30.03 846 24.98 -13 8.7 73 -16.9 1.7
00:55 1017 30.03 846 24.98 -12.9 8.8 72 -16.9 1.6
01:00 1017 30.03 846 24.98 -13 8.7 73 -16.8 1.7
01:05 1017 30.03 846 24.98 -13.1 8.4 74 -16.8 1.7
01:10 1017 30.03 846 24.98 -13 8.6 73 -16.8 1.7
01:15 1017 30.03 846 24.98 -13 8.5 73 -16.9 1.6
01:20 1017 30.03 846 24.98 -13.2 8.2 74 -16.9 1.6
01:25 1017 30.03 846 24.98 -13.4 8 75 -16.9 1.7
01:30 1017 30.03 846 24.98 -13.2 8.3 73 -17 1.5
01:35 1017 30.03 846 24.98 -13.2 8.3 74 -17 1.5
01:40 1017 30.03 846 24.98 -13.1 8.4 74 -16.9 1.6
01:45 1017 30.03 846 24.98 -13 8.6 73 -17 1.5
01:50 1017 30.03 846 24.98 -12.8 8.9 72 -16.8 1.7
01:55 1017 30.03 846 24.98 -12.7 9.2 72 -16.8 1.7
02:00 1017 30.03 846 24.98 -12.6 9.4 71 -16.8 1.8
02:05 1017 30.03 846 24.98 -12.6 9.3 72 -16.7 1.9
02:10 1017 30.03 846 24.98 -12.7 9.1 72 -16.8 1.8
02:15 1017 30.03 846 24.98 -12.8 9 72 -16.8 1.7
02:20 1017 30.03 846 24.98 -12.8 8.9 72 -16.9 1.7
02:25 1017 30.03 846 24.98 -12.9 8.8 72 -16.9 1.6
02:30 1017 30.03 846 24.98 -13 8.6 73 -16.9 1.6
02:35 1017 30.03 846 24.98 -13.2 8.3 75 -16.8 1.8
02:40 1017 30.03 846 24.98 -13 8.7 73 -16.8 1.7
02:45 1017 30.03 846 24.98 -13 8.6 73 -16.9 1.6
02:50 1017 30.03 846 24.98 -13.2 8.3 74 -16.9 1.6
02:55 1017 30.03 846 24.98 -13.1 8.4 74 -16.9 1.7
03:00 1017 30.03 846 24.98 -12.9 8.7 73 -16.9 1.6
03:05 1017 30.03 846 24.98 -12.9 8.7 73 -16.8 1.7
03:10 1017 30.03 846 24.98 -13 8.6 73 -16.9 1.7
03:15 1017 30.03 846 24.98 -12.9 8.7 74 -16.7 2
03:20 1017 30.03 846 24.98 -12.8 9 73 -16.7 2
03:25 1017 30.03 846 24.98 -13.1 8.5 73 -17 1.4
03:30 1017 30.03 846 24.98 -13.4 7.9 74 -17.1 1.2
03:35 1017 30.03 846 24.98 -13.4 8 74 -17.1 1.2
03:40 1017 30.03 846 24.98 -13.4 7.8 74 -17.2 1.1
03:45 1017 30.03 847 25.01 -13.4 7.8 74 -17.1 1.2
03:50 1017 30.03 847 25.01 -13.5 7.7 74 -17.2 1.1
03:55 1017 30.03 846 24.98 -13.5 7.6 74 -17.2 1.1
04:00 1017 30.03 846 24.98 -13.4 7.9 74 -17.2 1.1
04:05 1017 30.03 846 24.98 -13.3 8.1 73 -17.1 1.2
04:10 1017 30.03 847 25.01 -13.3 8 74 -17.1 1.2
04:15 1017 30.03 847 25.01 -13.2 8.3 72 -17.1 1.1
04:20 1017 30.03 847 25.01 -13 8.7 72 -17 1.5
04:25 1017 30.03 847 25.01 -13 8.6 72 -17.1 1.2
04:30 1017 30.03 847 25.01 -13.1 8.4 72 -17.1 1.2
04:35 1018 30.06 847 25.01 -13.2 8.3 72 -17.2 1
04:40 1018 30.06 847 25.01 -13.3 8 73 -17.2 1
04:45 1018 30.06 847 25.01 -13.3 8.1 74 -17 1.4
04:50 1018 30.06 847 25.01 -13.4 7.9 75 -16.9 1.5
04:55 1018 30.06 847 25.01 -13.5 7.8 76 -16.9 1.6
05:00 1018 30.06 847 25.01 -13.5 7.8 76 -16.9 1.6
05:05 1018 30.06 847 25.01 -12.9 8.7 73 -16.9 1.6
05:10 1018 30.06 847 25.01 -12.7 9.2 71 -16.9 1.5
05:15 1018 30.06 847 25.01 -12.6 9.3 71 -16.8 1.7
05:20 1018 30.06 847 25.01 -12.8 9 71 -17 1.4
05:25 1018 30.06 847 25.01 -12.4 9.7 68 -17.1 1.3
05:30 1018 30.06 847 25.01 -11.9 10.6 66 -17 1.3
05:35 1018 30.06 847 25.01 -11.8 10.8 65 -17.1 1.3
05:40 1018 30.06 847 25.01 -11.9 10.5 66 -17.1 1.2
05:45 1018 30.06 847 25.01 -12.3 9.9 67 -17.1 1.1
05:50 1018 30.06 847 25.01 -12.5 9.6 69 -17.1 1.2
05:55 1018 30.06 847 25.01 -12.6 9.3 70 -17 1.4
06:00 1018 30.06 847 25.01 -12.8 8.9 71 -17.1 1.2
06:05 1018 30.06 847 25.01 -12.2 10.1 69 -16.8 1.8
06:10 1018 30.06 847 25.01 -11.9 10.5 68 -16.6 2.1
06:15 1018 30.06 847 25.01 -12 10.4 68 -16.7 2
06:20 1018 30.06 847 25.01 -12.2 10 70 -16.7 2
06:25 1018 30.06 847 25.01 -12.3 9.8 70 -16.7 2
06:30 1018 30.06 847 25.01 -12.4 9.8 72 -16.4 2.5
06:35 1018 30.06 848 25.04 -12.8 9 73 -16.6 2
06:40 1018 30.06 848 25.04 -12.6 9.3 74 -16.4 2.5
06:45 1018 30.06 848 25.04 -12.8 9.1 74 -16.4 2.5
06:50 1018 30.06 848 25.04 -12.2 10.1 71 -16.3 2.6
06:55 1018 30.06 848 25.04 -11.6 11.2 70 -16 3.2
07:00 1018 30.06 848 25.04 -11.2 11.8 70 -15.6 3.9
07:05 1018 30.06 848 25.04 -11.2 11.9 70 -15.6 3.9
07:10 1018 30.06 848 25.04 -11 12.1 70 -15.5 4.2
07:15 1019 30.09 848 25.04 -11.1 12 71 -15.3 4.4
07:20 1019 30.09 848 25.04 -11.1 12.1 70 -15.5 4.1
07:25 1019 30.09 848 25.04 -11.2 11.9 72 -15.4 4.3
07:30 1019 30.09 848 25.04 -11.6 11.2 73 -15.5 4.1
07:35 1019 30.09 848 25.04 -11.8 10.8 72 -15.8 3.6
07:40 1019 30.09 848 25.04 -11.7 11 72 -15.7 3.8
07:45 1019 30.09 848 25.04 -11.6 11.2 73 -15.4 4.3
07:50 1019 30.09 848 25.04 -11.5 11.3 74 -15.3 4.5
07:55 1019 30.09 848 25.04 -11.6 11.1 75 -15.2 4.6
08:00 1019 30.09 848 25.04 -11.6 11.2 74 -15.3 4.5
08:05 1019 30.09 848 25.04 -11.3 11.7 73 -15.2 4.6
08:10 1019 30.09 848 25.04 -10.9 12.4 71 -15.1 4.8
08:15 1019 30.09 848 25.04 -10.7 12.8 70 -15.1 4.8
08:20 1019 30.09 848 25.04 -10.5 13.1 71 -14.8 5.4
08:25 1019 30.09 848 25.04 -10.3 13.5 71 -14.5 5.8
08:30 1019 30.09 848 25.04 -10.1 13.7 70 -14.6 5.7
08:35 1019 30.09 848 25.04 -10 14 70 -14.5 5.9
08:40 1019 30.09 848 25.04 -9.9 14.2 68 -14.7 5.5
08:45 1019 30.09 848 25.04 -9.7 14.6 68 -14.5 5.9
08:50 1019 30.09 849 25.07 -9.5 14.9 67 -14.5 5.9
08:55 1019 30.09 849 25.07 -9.3 15.3 67 -14.3 6.2
09:00 1019 30.09 849 25.07 -9.1 15.7 65 -14.5 5.9
09:05 1019 30.09 849 25.07 -9 15.8 64 -14.7 5.6
09:10 1019 30.09 849 25.07 -9.1 15.6 65 -14.5 5.9
09:15 1019 30.09 849 25.07 -8.7 16.4 64 -14.2 6.4
09:20 1020 30.12 849 25.07 -8.3 17 61 -14.5 5.9
09:25 1020 30.12 849 25.07 -8.3 17.1 64 -14 6.8
09:30 1020 30.12 849 25.07 -7.9 17.7 61 -14.2 6.4
09:35 1020 30.12 849 25.07 -8.1 17.5 61 -14.3 6.3
09:40 1020 30.12 849 25.07 -8.3 17.1 62 -14.3 6.2
09:45 1020 30.12 849 25.07 -8.3 17.1 61 -14.5 5.9
09:50 1020 30.12 849 25.07 -8.1 17.3 64 -13.9 7
09:55 1020 30.12 849 25.07 -7.7 18.1 59 -14.4 6.2
10:00 1020 30.12 849 25.07 -7.5 18.4 60 -14 6.9
10:05 1020 30.12 849 25.07 -7.5 18.6 58 -14.3 6.2
10:10 1020 30.12 849 25.07 -7.6 18.3 60 -14 6.7
10:15 1020 30.12 849 25.07 -7.3 18.8 58 -14.3 6.3
10:20 1020 30.12 849 25.07 -7.5 18.5 57 -14.6 5.7
10:25 1020 30.12 849 25.07 -7.6 18.3 58 -14.6 5.8
10:30 1020 30.12 849 25.07 -7.3 18.9 57 -14.5 6
10:35 1020 30.12 849 25.07 -7.3 19 56 -14.6 5.7
10:40 1020 30.12 849 25.07 -7.1 19.2 56 -14.5 5.9
10:45 1020 30.12 849 25.07 -7 19.5 56 -14.4 6.1
10:50 1020 30.12 849 25.07 -7.2 19 56 -14.6 5.8
10:55 1020 30.12 849 25.07 -6.9 19.7 55 -14.5 5.9
11:00 1020 30.12 849 25.07 -6 21.2 53 -14.1 6.5
11:05 1020 30.12 849 25.07 -5.5 22.1 51 -14.2 6.5
11:10 1020 30.12 849 25.07 -5.6 21.8 53 -13.7 7.4
11:15 1020 30.12 849 25.07 -5.4 22.2 52 -13.9 7
11:20 1020 30.12 849 25.07 -4.7 23.5 50 -13.7 7.3
11:25 1020 30.12 849 25.07 -4.4 24.1 47 -14.1 6.6
11:30 1020 30.12 849 25.07 -5 23 51 -13.6 7.4
11:35 1020 30.12 849 25.07 -4.9 23.2 51 -13.5 7.6
11:40 1020 30.12 849 25.07 -4.1 24.6 48 -13.6 7.5
11:45 1020 30.12 849 25.07 -4.1 24.6 48 -13.6 7.6
11:50 1020 30.12 849 25.07 -3.9 24.9 50 -12.9 8.7
11:55 1020 30.12 849 25.07 -4.3 24.2 51 -13.1 8.4
12:00 1020 30.12 849 25.07 -5.1 22.8 56 -12.6 9.4
12:05 1020 30.12 849 25.07 -5.1 22.7 53 -13.4 7.8
12:10 1020 30.12 849 25.07 -5.4 22.2 55 -13.1 8.5
12:15 1020 30.12 849 25.07 -5.7 21.7 56 -13.2 8.3
12:20 1020 30.12 849 25.07 -5.6 22 53 -13.7 7.4
12:25 1020 30.12 849 25.07 -5.3 22.4 53 -13.4 7.8
12:30 1020 30.12 849 25.07 -4.9 23.2 53 -13 8.7
12:35 1020 30.12 849 25.07 -4.9 23.1 55 -12.6 9.4
12:40 1020 30.12 849 25.07 -4.2 24.4 52 -12.6 9.3
12:45 1020 30.12 849 25.07 -4.3 24.3 54 -12.3 9.8
12:50 1020 30.12 849 25.07 -4.7 23.6 55 -12.4 9.7
12:55 1020 30.12 849 25.07 -3.9 25 52 -12.4 9.7
13:00 1020 30.12 849 25.07 -2.9 26.7 47 -12.7 9.1
13:05 1020 30.12 849 25.07 -2.5 27.5 46 -12.6 9.4
13:10 1020 30.12 849 25.07 -2.6 27.3 45 -12.8 8.9
13:15 1020 30.12 849 25.07 -2 28.4 43 -13 8.5
13:20 1020 30.12 849 25.07 -1.2 29.8 40 -13.2 8.2
13:25 1020 30.12 849 25.07 -1.5 29.3 45 -11.9 10.6
13:30 1020 30.12 849 25.07 -1.9 28.7 46 -12.1 10.2
13:35 1020 30.12 849 25.07 -2 28.4 45 -12.4 9.7
13:40 1020 30.12 849 25.07 -2.7 27.2 47 -12.4 9.6
13:45 1020 30.12 849 25.07 -2.6 27.3 46 -12.8 8.9
13:50 1020 30.12 849 25.07 -2.6 27.3 44 -13.3 8
13:55 1020 30.12 849 25.07 -2 28.5 44 -12.8 9
14:00 1020 30.12 849 25.07 -1.8 28.7 41 -13.4 7.8
14:05 1020 30.12 849 25.07 -1.1 29.9 40 -13.3 8.1
14:10 1020 30.12 849 25.07 -1.2 29.9 39 -13.4 7.8
14:15 1020 30.12 849 25.07 -1.3 29.7 38 -13.9 7.1
14:20 1020 30.12 849 25.07 -0.9 30.5 36 -14.1 6.6
14:25 1020 30.12 849 25.07 -0.7 30.7 35 -14.2 6.4
14:30 1019 30.09 849 25.07 -1.2 29.9 36 -14.3 6.3
14:35 1019 30.09 849 25.07 -0.7 30.7 34 -14.8 5.3
14:40 1019 30.09 849 25.07 -1.1 30 34 -15 5
14:45 1019 30.09 849 25.07 -0.3 31.4 32 -15.1 4.9
14:50 1019 30.09 849 25.07 -0.1 31.8 32 -14.7 5.5
14:55 1020 30.12 849 25.07 0.2 32.3 31 -15.1 4.9
15:00 1020 30.12 849 25.07 0.7 33.3 32 -14.2 6.5
15:05 1020 30.12 849 25.07 0.9 33.6 32 -14 6.8
15:10 1019 30.09 849 25.07 1.2 34.1 31 -14.2 6.4
15:15 1019 30.09 849 25.07 1.2 34.1 33 -13.4 7.8
15:20 1019 30.09 849 25.07 0.6 33.1 34 -13.4 7.8
15:25 1019 30.09 849 25.07 0.7 33.2 33 -14 6.8
15:30 1019 30.09 849 25.07 1.3 34.3 32 -13.7 7.4
15:35 1019 30.09 849 25.07 0.8 33.4 31 -14.6 5.7
15:40 1019 30.09 849 25.07 1.7 35 31 -13.9 7
15:45 1019 30.09 849 25.07 2 35.6 30 -14 6.9
15:50 1019 30.09 849 25.07 2.1 35.8 30 -13.8 7.1
15:55 1019 30.09 849 25.07 2 35.7 30 -13.7 7.3
16:00 1019 30.09 849 25.07 1.4 34.5 32 -13.7 7.3
16:05 1019 30.09 848 25.04 0.4 32.8 34 -13.8 7.2
16:10 1019 30.09 848 25.04 0.4 32.7 33 -14.2 6.5
16:15 1019 30.09 848 25.04 0.2 32.4 34 -14 6.9
16:20 1019 30.09 848 25.04 -0.1 31.9 36 -13.4 7.9
16:25 1019 30.09 848 25.04 0.1 32.2 36 -13.4 7.9
16:30 1019 30.09 848 25.04 0.4 32.8 34 -13.7 7.3
16:35 1019 30.09 848 25.04 0.2 32.4 35 -13.6 7.5
16:40 1019 30.09 848 25.04 0.1 32.3 34 -13.9 7.1
16:45 1019 30.09 848 25.04 0.3 32.5 35 -13.5 7.6
16:50 1019 30.09 848 25.04 0.7 33.3 34 -13.6 7.6
16:55 1019 30.09 848 25.04 0.9 33.5 33 -13.8 7.1
17:00 1019 30.09 848 25.04 1 33.8 34 -13.2 8.3
17:05 1019 30.09 848 25.04 0.7 33.3 35 -13 8.5
17:10 1019 30.09 848 25.04 0.3 32.5 36 -13.1 8.4
17:15 1019 30.09 848 25.04 0.1 32.3 37 -13 8.6
17:20 1019 30.09 848 25.04 0.1 32.3 37 -13.1 8.5
17:25 1019 30.09 848 25.04 0.2 32.3 38 -12.5 9.5
17:30 1019 30.09 848 25.04 0.3 32.5 37 -12.7 9.2
17:35 1019 30.09 848 25.04 0 32 38 -12.6 9.3
17:40 1019 30.09 848 25.04 -0.7 30.8 40 -12.7 9.1
17:45 1019 30.09 848 25.04 -0.9 30.3 40 -13 8.6
17:50 1019 30.09 848 25.04 -1.2 29.9 41 -12.8 9
17:55 1019 30.09 848 25.04 -1.6 29.1 41 -13.1 8.5
18:00 1019 30.09 848 25.04 -2 28.5 44 -12.7 9.2
18:05 1019 30.09 848 25.04 -2 28.4 44 -12.6 9.3
18:10 1019 30.09 848 25.04 -2.2 28 44 -13 8.6
18:15 1019 30.09 848 25.04 -2.5 27.5 45 -13 8.7
18:20 1019 30.09 848 25.04 -2.6 27.3 45 -13 8.5
18:25 1019 30.09 848 25.04 -2.6 27.2 44 -13.3 8.1
18:30 1019 30.09 848 25.04 -2.6 27.3 44 -13.2 8.2
18:35 1019 30.09 848 25.04 -2.7 27.1 46 -12.8 8.9
18:40 1019 30.09 848 25.04 -2.9 26.9 47 -12.7 9.1
18:45 1019 30.09 848 25.04 -3 26.5 46 -13 8.6
18:50 1019 30.09 848 25.04 -3.1 26.5 47 -12.9 8.8
18:55 1019 30.09 848 25.04 -3.3 26 48 -12.8 8.9
19:00 1019 30.09 848 25.04 -3.5 25.7 50 -12.6 9.3
19:05 1019 30.09 848 25.04 -3.3 26.1 48 -12.7 9.1
19:10 1019 30.09 848 25.04 -3.3 26.1 48 -12.8 9
19:15 1019 30.09 848 25.04 -3.5 25.7 50 -12.4 9.7
19:20 1019 30.09 848 25.04 -3.7 25.3 51 -12.4 9.7
19:25 1019 30.09 848 25.04 -3.9 25 52 -12.4 9.7
19:30 1019 30.09 848 25.04 -4 24.9 53 -12.3 9.9
19:35 1019 30.09 848 25.04 -4 24.8 53 -12.3 9.8
19:40 1019 30.09 848 25.04 -3.9 24.9 54 -12 10.4
19:45 1019 30.09 848 25.04 -4.1 24.6 54 -12.1 10.2
19:50 1019 30.09 848 25.04 -4.7 23.5 55 -12.4 9.8
19:55 1019 30.09 848 25.04 -5.3 22.4 58 -12.4 9.7
20:00 1019 30.09 848 25.04 -5.6 21.8 60 -12.3 9.8
20:05 1019 30.09 848 25.04 -5.7 21.7 61 -12.1 10.2
20:10 1019 30.09 848 25.04 -5.6 21.9 60 -12.1 10.1
20:15 1019 30.09 848 25.04 -5.5 22.1 60 -12.1 10.2
20:20 1019 30.09 848 25.04 -5.3 22.5 58 -12.4 9.8
20:25 1019 30.09 848 25.04 -5.2 22.6 58 -12.3 9.9
20:30 1019 30.09 848 25.04 -5.8 21.6 61 -12.1 10.3
20:35 1019 30.09 848 25.04 -5.7 21.7 61 -12.1 10.3
20:40 1019 30.09 848 25.04 -5.7 21.7 60 -12.3 9.8
20:45 1019 30.09 848 25.04 -5.3 22.5 58 -12.2 10
20:50 1019 30.09 848 25.04 -5.1 22.8 58 -12 10.3
20:55 1019 30.09 848 25.04 -5 23 57 -12.2 10.1
21:00 1019 30.09 848 25.04 -4.7 23.5 56 -12.1 10.1
21:05 1019 30.09 848 25.04 -4.7 23.5 57 -11.9 10.5
21:10 1019 30.09 848 25.04 -4.8 23.4 58 -11.8 10.8
21:15 1019 30.09 848 25.04 -4.5 23.8 56 -12 10.5
21:20 1019 30.09 848 25.04 -4.3 24.2 57 -11.7 11
21:25 1019 30.09 848 25.04 -4.8 23.4 59 -11.7 11
21:30 1019 30.09 848 25.04 -5.2 22.6 60 -11.9 10.6
21:35 1019 30.09 848 25.04 -5.5 22.2 60 -12 10.4
21:40 1019 30.09 848 25.04 -5.4 22.2 60 -12 10.4
21:45 1019 30.09 848 25.04 -5.2 22.7 59 -11.9 10.6
21:50 1019 30.09 848 25.04 -5.4 22.3 60 -11.9 10.5
21:55 1019 30.09 848 25.04 -5.6 22 62 -11.8 10.7
22:00 1019 30.09 848 25.04 -5.6 22 65 -11.1 12
22:05 1019 30.09 848 25.04 -5.1 22.8 58 -12.1 10.2
22:10 1019 30.09 848 25.04 -4.9 23.2 57 -12.2 10
22:15 1019 30.09 848 25.04 -4.5 23.9 56 -12 10.4
22:20 1019 30.09 848 25.04 -4.8 23.4 57 -12 10.5
22:25 1019 30.09 848 25.04 -5.2 22.6 59 -12.1 10.3
22:30 1019 30.09 848 25.04 -5.8 21.6 61 -12.1 10.2
22:35 1019 30.09 848 25.04 -6 21.2 61 -12.3 9.9
22:40 1019 30.09 848 25.04 -6 21.2 62 -12.2 10.1
22:45 1019 30.09 848 25.04 -6.2 20.8 63 -12.2 10
22:50 1019 30.09 848 25.04 -6.2 20.8 62 -12.3 9.8
22:55 1019 30.09 848 25.04 -6.2 20.8 63 -12.1 10.2
23:00 1019 30.09 848 25.04 -6.4 20.5 63 -12.3 9.9
23:05 1019 30.09 848 25.04 -6.2 20.9 63 -12.2 10.1
23:10 1018 30.06 848 25.04 -6.4 20.6 63 -12.3 9.8
23:15 1018 30.06 848 25.04 -6.3 20.6 63 -12.3 9.9
23:20 1018 30.06 848 25.04 -6.3 20.6 64 -12.1 10.2
23:25 1018 30.06 848 25.04 -6.3 20.7 63 -12.2 10
23:30 1018 30.06 848 25.04 -6.7 20 65 -12.1 10.2
23:35 1018 30.06 848 25.04 -6.7 19.9 66 -12.2 10.1
23:40 1019 30.09 848 25.04 -6.7 19.9 66 -12.2 10.1
23:45 1019 30.09 848 25.04 -6.8 19.8 67 -11.9 10.5
23:50 1018 30.06 848 25.04 -6.4 20.5 65 -11.9 10.6
23:55 1018 30.06 848 25.04 -6.4 20.5 64 -12.1 10.1
24:00 1018 30.06 848 25.04 -6.5 20.3 65 -12 10.3